createdAt,value
2019-04-13T00:00:23.920Z,11.9
2019-04-13T00:05:19.233Z,11.9
2019-04-13T00:10:14.764Z,11.9
2019-04-13T00:15:10.268Z,11.9
2019-04-13T00:20:06.052Z,11.8
2019-04-13T00:25:02.158Z,11.8
2019-04-13T00:29:57.685Z,11.8
2019-04-13T00:34:53.368Z,11.8
2019-04-13T00:39:48.938Z,11.8
2019-04-13T00:44:44.236Z,11.6
2019-04-13T00:49:40.046Z,11.9
2019-04-13T00:54:35.767Z,11.8
2019-04-13T00:59:31.605Z,11.8
2019-04-13T01:04:27.055Z,11.8
2019-04-13T01:09:22.729Z,11.8
2019-04-13T01:14:18.540Z,11.8
2019-04-13T01:19:14.079Z,11.9
2019-04-13T01:24:09.256Z,11.8
2019-04-13T01:29:04.850Z,11.8
2019-04-13T01:34:00.295Z,11.8
2019-04-13T01:38:56.072Z,11.8
2019-04-13T01:43:51.600Z,11.7
2019-04-13T01:48:47.212Z,11.1
2019-04-13T01:53:42.777Z,11.1
2019-04-13T01:58:38.413Z,11.1
2019-04-13T02:03:34.126Z,11.7
2019-04-13T02:08:29.739Z,11.7
2019-04-13T02:13:25.335Z,11.6
2019-04-13T02:18:21.270Z,11.6
2019-04-13T02:23:16.681Z,11.6
2019-04-13T02:28:12.302Z,11.6
2019-04-13T02:33:07.821Z,11.5
2019-04-13T02:38:03.647Z,11.5
2019-04-13T02:42:58.951Z,11.5
2019-04-13T02:47:55.148Z,11.5
2019-04-13T02:52:50.730Z,11.5
2019-04-13T02:57:46.383Z,11.5
2019-04-13T03:02:42.117Z,11.5
2019-04-13T03:07:37.769Z,11.4
2019-04-13T03:12:33.378Z,11.4
2019-04-13T03:17:29.164Z,11.5
2019-04-13T03:22:24.518Z,11.4
2019-04-13T03:27:20.191Z,11.4
2019-04-13T03:32:15.840Z,11.4
2019-04-13T03:37:11.642Z,11.4
2019-04-13T03:42:07.236Z,11.4
2019-04-13T03:47:02.867Z,11.4
2019-04-13T03:51:58.632Z,10.8
2019-04-13T03:56:54.583Z,11.4
2019-04-13T04:01:50.306Z,11.4
2019-04-13T04:06:45.878Z,10.9
2019-04-13T04:11:41.446Z,10.7
2019-04-13T04:16:37.223Z,10.6
2019-04-13T04:21:32.569Z,10.8
2019-04-13T04:26:28.471Z,10.8
2019-04-13T04:31:24.188Z,10.8
2019-04-13T04:36:23.726Z,10.8
2019-04-13T04:41:15.400Z,11.3
2019-04-13T04:46:11.187Z,10.9
2019-04-13T04:51:11.142Z,10.8
2019-04-13T04:56:02.050Z,10.6
2019-04-13T05:00:57.145Z,10.8
2019-04-13T05:05:52.822Z,11.3
2019-04-13T05:10:48.112Z,10.6
2019-04-13T05:15:43.922Z,10.8
2019-04-13T05:20:39.582Z,11.3
2019-04-13T05:25:35.375Z,10.8
2019-04-13T05:30:30.918Z,11.4
2019-04-13T05:35:26.585Z,10.8
2019-04-13T05:40:21.966Z,11.4
2019-04-13T05:45:17.780Z,10.8
2019-04-13T05:50:13.583Z,11.4
2019-04-13T05:55:09.375Z,11.4
2019-04-13T06:00:05.392Z,9.4
2019-04-13T06:05:00.549Z,11.5
2019-04-13T06:09:55.810Z,11
2019-04-13T06:14:51.767Z,11.6
2019-04-13T06:19:47.452Z,11.6
2019-04-13T06:24:43.227Z,11.4
2019-04-13T06:29:38.836Z,11.1
2019-04-13T06:34:34.547Z,11.1
2019-04-13T06:39:29.909Z,11.7
2019-04-13T06:44:25.691Z,11.7
2019-04-13T06:49:23.382Z,11.8
2019-04-13T06:54:17.164Z,11.8
2019-04-13T06:59:12.766Z,9.7
2019-04-13T07:04:08.626Z,11.2
2019-04-13T07:09:04.408Z,11.8
2019-04-13T07:14:00.254Z,11.9
2019-04-13T07:18:55.933Z,11.9
2019-04-13T07:23:52.107Z,12
2019-04-13T07:28:47.600Z,12
2019-04-13T07:33:43.283Z,12.1
2019-04-13T07:38:38.970Z,12.1
2019-04-13T07:43:34.399Z,12.2
2019-04-13T07:48:29.887Z,12.3
2019-04-13T07:53:25.736Z,12.4
2019-04-13T07:58:21.481Z,12.5
2019-04-13T08:03:17.334Z,12.6
2019-04-13T08:08:12.592Z,12.6
2019-04-13T08:13:08.662Z,12.6
2019-04-13T08:18:04.145Z,12.6
2019-04-13T08:23:00.221Z,12.7
2019-04-13T08:27:55.886Z,12.7
2019-04-13T08:32:51.848Z,12.8
2019-04-13T08:37:52.968Z,12.9
2019-04-13T08:42:43.570Z,13
2019-04-13T08:47:39.239Z,13
2019-04-13T08:52:35.207Z,13.1
2019-04-13T08:57:31.081Z,13.1
2019-04-13T09:02:26.926Z,13.2
2019-04-13T09:07:22.659Z,13.1
2019-04-13T09:12:18.609Z,13.2
2019-04-13T09:17:16.905Z,13.2
2019-04-13T09:22:11.540Z,13.4
2019-04-13T09:27:07.441Z,13.4
2019-04-13T09:32:01.856Z,13.4
2019-04-13T09:37:00.088Z,13.5
2019-04-13T09:41:53.958Z,13.6
2019-04-13T09:46:49.684Z,13.6
2019-04-13T09:51:47.163Z,13.6
2019-04-13T09:56:41.196Z,13.3
2019-04-13T10:01:37.150Z,13.4
2019-04-13T10:06:33.021Z,13.4
2019-04-13T10:11:28.913Z,13.3
2019-04-13T10:16:24.297Z,13.3
2019-04-13T10:21:20.329Z,13.3
2019-04-13T10:26:16.189Z,13.3
2019-04-13T10:31:11.669Z,13.2
2019-04-13T10:36:08.151Z,13.4
2019-04-13T10:41:03.888Z,13.5
2019-04-13T10:45:59.981Z,13.6
2019-04-13T10:50:55.962Z,13.6
2019-04-13T10:55:51.804Z,13.7
2019-04-13T11:00:47.584Z,13.7
2019-04-13T11:05:43.496Z,13.7
2019-04-13T11:10:39.185Z,13.6
2019-04-13T11:15:34.639Z,13.7
2019-04-13T11:20:30.345Z,13.7
2019-04-13T11:25:25.889Z,13.7
2019-04-13T11:30:21.762Z,13.8
2019-04-13T11:35:17.669Z,13.6
2019-04-13T11:40:13.555Z,13.8
2019-04-13T11:45:10.015Z,13.8
2019-04-13T11:50:05.848Z,14
2019-04-13T11:55:01.804Z,14.3
2019-04-13T11:59:58.393Z,14.7
2019-04-13T12:04:54.255Z,14.6
2019-04-13T12:09:50.566Z,14.5
2019-04-13T12:14:46.156Z,14.4
2019-04-13T12:19:42.173Z,14.4
2019-04-13T12:24:38.352Z,14.4
2019-04-13T12:29:38.428Z,14.4
2019-04-13T12:34:30.007Z,13.3
2019-04-13T12:39:25.861Z,14.3
2019-04-13T12:44:21.658Z,14.3
2019-04-13T12:49:17.673Z,14.3
2019-04-13T12:54:13.599Z,14
2019-04-13T12:59:09.519Z,14.2
2019-04-13T13:04:05.616Z,14
2019-04-13T13:09:01.601Z,14
2019-04-13T13:13:56.858Z,13.9
2019-04-13T13:18:52.906Z,13.9
2019-04-13T13:23:51.569Z,13.9
2019-04-13T13:28:44.894Z,13.4
2019-04-13T13:33:40.561Z,14
2019-04-13T13:38:38.701Z,14
2019-04-13T13:43:32.598Z,13.6
2019-04-13T13:48:28.601Z,13.3
2019-04-13T13:53:24.422Z,14.1
2019-04-13T13:58:20.246Z,14.1
2019-04-13T14:03:16.089Z,14.3
2019-04-13T14:08:12.130Z,14.3
2019-04-13T14:13:07.797Z,13.7
2019-04-13T14:18:04.357Z,14.2
2019-04-13T14:23:00.052Z,14.1
2019-04-13T14:27:56.103Z,14.1
2019-04-13T14:32:51.960Z,14
2019-04-13T14:37:50.601Z,13.9
2019-04-13T14:42:45.438Z,13.9
2019-04-13T14:47:39.333Z,13.9
2019-04-13T14:52:34.925Z,13.9
2019-04-13T14:57:30.491Z,13.9
2019-04-13T15:02:26.275Z,13.9
2019-04-13T15:07:22.393Z,13.1
2019-04-13T15:12:18.326Z,13.8
2019-04-13T15:17:14.653Z,13.8
2019-04-13T15:22:13.081Z,13.6
2019-04-13T15:27:07.638Z,13.9
2019-04-13T15:32:01.895Z,13.9
2019-04-13T15:37:00.278Z,13.9
2019-04-13T15:42:03.511Z,13.9
2019-04-13T15:46:49.418Z,13.8
2019-04-13T15:51:46.182Z,13.1
2019-04-13T15:56:43.148Z,13.6
2019-04-13T16:01:36.991Z,13.5
2019-04-13T16:06:33.626Z,13.4
2019-04-13T16:11:29.403Z,13.4
2019-04-13T16:16:24.503Z,13.3
2019-04-13T16:21:20.037Z,13.2
2019-04-13T16:26:16.112Z,13.1
2019-04-13T16:31:13.697Z,13.1
2019-04-13T16:36:08.913Z,12.8
2019-04-13T16:41:04.611Z,12.9
2019-04-13T16:46:01.470Z,12.9
2019-04-13T16:50:57.226Z,12.8
2019-04-13T16:55:52.252Z,12.8
2019-04-13T17:00:50.182Z,12.8
2019-04-13T17:05:44.134Z,12.7
2019-04-13T17:10:40.063Z,12.6
2019-04-13T17:15:35.719Z,12.5
2019-04-13T17:20:32.325Z,12.5
2019-04-13T17:25:27.492Z,12.5
2019-04-13T17:30:23.958Z,12.4
2019-04-13T17:35:19.893Z,12.3
2019-04-13T17:40:15.393Z,11.7
2019-04-13T17:45:10.307Z,11.6
2019-04-13T17:50:06.350Z,12.2
2019-04-13T17:55:02.634Z,11.5
2019-04-13T17:59:59.357Z,12
2019-04-13T18:04:53.906Z,11.3
2019-04-13T18:09:50.122Z,12
2019-04-13T18:14:46.711Z,12
2019-04-13T18:19:42.069Z,11.3
2019-04-13T18:24:37.036Z,11.9
2019-04-13T18:29:32.957Z,11.4
2019-04-13T18:34:30.496Z,11.3
2019-04-13T18:39:25.553Z,11.2
2019-04-13T18:44:21.490Z,11.2
2019-04-13T18:49:16.588Z,11.1
2019-04-13T18:54:13.682Z,11.2
2019-04-13T18:59:08.772Z,11.1
2019-04-13T19:04:04.418Z,11.1
2019-04-13T19:09:01.044Z,11.7
2019-04-13T19:13:56.749Z,11
2019-04-13T19:18:52.559Z,11.1
2019-04-13T19:23:48.552Z,11
2019-04-13T19:28:44.295Z,10.9
2019-04-13T19:33:40.370Z,10.9
2019-04-13T19:38:36.236Z,10.9
2019-04-13T19:43:32.108Z,10.9
2019-04-13T19:48:27.885Z,10.9
2019-04-13T19:53:23.467Z,11.5
2019-04-13T19:58:19.331Z,10.9
2019-04-13T20:03:15.765Z,11.2
2019-04-13T20:08:11.466Z,11.5
2019-04-13T20:13:08.397Z,10.9
2019-04-13T20:18:02.927Z,10.9
2019-04-13T20:22:58.717Z,10.7
2019-04-13T20:27:56.273Z,11
2019-04-13T20:32:51.376Z,10.6
2019-04-13T20:37:46.901Z,10.6
2019-04-13T20:42:43.688Z,10.7
2019-04-13T20:47:39.316Z,10.7
2019-04-13T20:52:35.196Z,10.7
2019-04-13T20:57:30.478Z,10.5
2019-04-13T21:02:26.663Z,10.4
2019-04-13T21:07:22.761Z,10.4
2019-04-13T21:12:18.411Z,10.1
2019-04-13T21:17:13.847Z,10.2
2019-04-13T21:22:09.778Z,10.1
2019-04-13T21:27:05.741Z,10.2
2019-04-13T21:32:02.823Z,10.2
2019-04-13T21:36:58.810Z,10.1
2019-04-13T21:41:54.166Z,10.1
2019-04-13T21:46:50.280Z,10.1
2019-04-13T21:51:46.528Z,10
2019-04-13T21:56:42.654Z,10
2019-04-13T22:01:38.866Z,10.5
2019-04-13T22:06:34.138Z,10.5
2019-04-13T22:11:30.044Z,10.5
2019-04-13T22:16:25.493Z,10
2019-04-13T22:21:21.899Z,9.7
2019-04-13T22:26:17.582Z,9.8
2019-04-13T22:31:13.449Z,10.5
2019-04-13T22:36:09.172Z,9.9
2019-04-13T22:41:04.879Z,9.8
2019-04-13T22:46:00.570Z,10.5
2019-04-13T22:50:57.087Z,10.6
2019-04-13T22:55:54.109Z,10
2019-04-13T23:00:50.377Z,10
2019-04-13T23:05:45.655Z,9.9
2019-04-13T23:10:40.651Z,9.9
2019-04-13T23:15:39.272Z,5.4
2019-04-13T23:20:32.882Z,9.9
2019-04-13T23:25:29.050Z,9.9
2019-04-13T23:30:24.847Z,9.8
2019-04-13T23:35:21.301Z,10.3
2019-04-13T23:40:16.644Z,9.8
2019-04-13T23:45:18.954Z,9.8
2019-04-13T23:50:08.968Z,9.9
2019-04-13T23:55:05.354Z,9.8
